sensor_id;sensor_type;location;lat;lon;timestamp;pressure;altitude;pressure_sealevel;temperature
65180;BMP280;51849;47.476;8.084;2022-08-21T00:00:59;96726.03;;;17.53
65180;BMP280;51849;47.476;8.084;2022-08-21T00:03:29;96717.13;;;17.43
65180;BMP280;51849;47.476;8.084;2022-08-21T00:05:55;96720.97;;;17.42
65180;BMP280;51849;47.476;8.084;2022-08-21T00:08:21;96718.47;;;17.36
65180;BMP280;51849;47.476;8.084;2022-08-21T00:10:50;96711.38;;;17.31
65180;BMP280;51849;47.476;8.084;2022-08-21T00:13:17;96715.34;;;17.25
65180;BMP280;51849;47.476;8.084;2022-08-21T00:15:43;96707.91;;;17.23
65180;BMP280;51849;47.476;8.084;2022-08-21T00:18:09;96704.41;;;17.21
65180;BMP280;51849;47.476;8.084;2022-08-21T00:20:37;96701.66;;;17.26
65180;BMP280;51849;47.476;8.084;2022-08-21T00:23:03;96704.84;;;17.32
65180;BMP280;51849;47.476;8.084;2022-08-21T00:25:32;96709.84;;;17.36
65180;BMP280;51849;47.476;8.084;2022-08-21T00:28:01;96703.53;;;17.39
65180;BMP280;51849;47.476;8.084;2022-08-21T00:30:28;96704.47;;;17.41
65180;BMP280;51849;47.476;8.084;2022-08-21T00:32:55;96706.16;;;17.39
65180;BMP280;51849;47.476;8.084;2022-08-21T00:35:27;96706.38;;;17.41
65180;BMP280;51849;47.476;8.084;2022-08-21T00:38:13;96708.22;;;17.46
65180;BMP280;51849;47.476;8.084;2022-08-21T00:40:49;96705.75;;;17.48
65180;BMP280;51849;47.476;8.084;2022-08-21T00:43:21;96697.03;;;17.53
65180;BMP280;51849;47.476;8.084;2022-08-21T00:45:51;96696.00;;;17.56
65180;BMP280;51849;47.476;8.084;2022-08-21T00:48:25;96692.34;;;17.59
65180;BMP280;51849;47.476;8.084;2022-08-21T00:51:15;96692.53;;;17.61
65180;BMP280;51849;47.476;8.084;2022-08-21T00:53:49;96695.16;;;17.61
65180;BMP280;51849;47.476;8.084;2022-08-21T00:56:20;96686.28;;;17.51
65180;BMP280;51849;47.476;8.084;2022-08-21T00:58:56;96682.50;;;17.59
65180;BMP280;51849;47.476;8.084;2022-08-21T01:01:23;96683.22;;;17.60
65180;BMP280;51849;47.476;8.084;2022-08-21T01:03:57;96693.78;;;17.60
65180;BMP280;51849;47.476;8.084;2022-08-21T01:06:23;96685.19;;;17.46
65180;BMP280;51849;47.476;8.084;2022-08-21T01:08:49;96691.97;;;17.55
65180;BMP280;51849;47.476;8.084;2022-08-21T01:11:23;96687.44;;;17.63
65180;BMP280;51849;47.476;8.084;2022-08-21T01:13:49;96683.63;;;17.64
65180;BMP280;51849;47.476;8.084;2022-08-21T01:16:24;96686.44;;;17.66
65180;BMP280;51849;47.476;8.084;2022-08-21T01:18:51;96686.44;;;17.66
65180;BMP280;51849;47.476;8.084;2022-08-21T01:21:28;96691.97;;;17.55
65180;BMP280;51849;47.476;8.084;2022-08-21T01:23:56;96689.09;;;17.53
65180;BMP280;51849;47.476;8.084;2022-08-21T01:26:36;96690.28;;;17.31
65180;BMP280;51849;47.476;8.084;2022-08-21T01:32:02;96682.38;;;17.31
65180;BMP280;51849;47.476;8.084;2022-08-21T01:34:29;96683.56;;;17.30
65180;BMP280;51849;47.476;8.084;2022-08-21T01:37:00;96671.41;;;17.27
65180;BMP280;51849;47.476;8.084;2022-08-21T01:39:30;96669.81;;;17.24
65180;BMP280;51849;47.476;8.084;2022-08-21T01:42:00;96663.63;;;17.22
65180;BMP280;51849;47.476;8.084;2022-08-21T01:44:33;96669.81;;;17.24
65180;BMP280;51849;47.476;8.084;2022-08-21T01:47:03;96662.59;;;17.25
65180;BMP280;51849;47.476;8.084;2022-08-21T01:49:36;96659.59;;;17.21
65180;BMP280;51849;47.476;8.084;2022-08-21T01:52:04;96657.94;;;17.18
65180;BMP280;51849;47.476;8.084;2022-08-21T01:54:30;96657.75;;;17.16
65180;BMP280;51849;47.476;8.084;2022-08-21T01:56:58;96654.53;;;17.10
65180;BMP280;51849;47.476;8.084;2022-08-21T01:59:26;96659.47;;;17.13
65180;BMP280;51849;47.476;8.084;2022-08-21T02:01:52;96656.31;;;17.15
65180;BMP280;51849;47.476;8.084;2022-08-21T02:04:24;96661.00;;;17.09
65180;BMP280;51849;47.476;8.084;2022-08-21T02:06:50;96651.97;;;17.04
65180;BMP280;51849;47.476;8.084;2022-08-21T02:09:20;96658.34;;;17.09
65180;BMP280;51849;47.476;8.084;2022-08-21T02:11:49;96662.44;;;17.10
65180;BMP280;51849;47.476;8.084;2022-08-21T02:14:15;96651.25;;;17.04
65180;BMP280;51849;47.476;8.084;2022-08-21T02:16:45;96653.41;;;17.05
65180;BMP280;51849;47.476;8.084;2022-08-21T02:19:12;96650.06;;;17.05
65180;BMP280;51849;47.476;8.084;2022-08-21T02:21:38;96649.97;;;16.97
65180;BMP280;51849;47.476;8.084;2022-08-21T02:24:04;96657.06;;;16.89
65180;BMP280;51849;47.476;8.084;2022-08-21T02:26:35;96647.84;;;16.96
65180;BMP280;51849;47.476;8.084;2022-08-21T02:29:02;96653.09;;;16.96
65180;BMP280;51849;47.476;8.084;2022-08-21T02:31:28;96653.81;;;17.09
65180;BMP280;51849;47.476;8.084;2022-08-21T02:33:56;96659.78;;;17.10
65180;BMP280;51849;47.476;8.084;2022-08-21T02:36:22;96655.94;;;16.98
65180;BMP280;51849;47.476;8.084;2022-08-21T02:38:48;96647.44;;;17.05
65180;BMP280;51849;47.476;8.084;2022-08-21T02:41:17;96650.97;;;17.07
65180;BMP280;51849;47.476;8.084;2022-08-21T02:43:44;96651.47;;;17.06
65180;BMP280;51849;47.476;8.084;2022-08-21T02:46:15;96646.69;;;17.04
65180;BMP280;51849;47.476;8.084;2022-08-21T02:48:41;96645.28;;;17.03
65180;BMP280;51849;47.476;8.084;2022-08-21T02:51:13;96637.59;;;17.05
65180;BMP280;51849;47.476;8.084;2022-08-21T02:53:41;96640.00;;;17.03
65180;BMP280;51849;47.476;8.084;2022-08-21T02:56:17;96647.63;;;17.07
65180;BMP280;51849;47.476;8.084;2022-08-21T02:58:47;96650.78;;;17.05
65180;BMP280;51849;47.476;8.084;2022-08-21T03:01:14;96646.69;;;17.04
65180;BMP280;51849;47.476;8.084;2022-08-21T03:03:44;96649.94;;;17.10
65180;BMP280;51849;47.476;8.084;2022-08-21T03:06:12;96652.56;;;17.10
65180;BMP280;51849;47.476;8.084;2022-08-21T03:08:40;96650.97;;;17.07
65180;BMP280;51849;47.476;8.084;2022-08-21T03:11:11;96651.47;;;17.06
65180;BMP280;51849;47.476;8.084;2022-08-21T03:13:40;96650.25;;;17.07
65180;BMP280;51849;47.476;8.084;2022-08-21T03:16:06;96641.56;;;17.12
65180;BMP280;51849;47.476;8.084;2022-08-21T03:18:34;96644.75;;;17.18
65180;BMP280;51849;47.476;8.084;2022-08-21T03:21:03;96637.81;;;17.07
65180;BMP280;51849;47.476;8.084;2022-08-21T03:23:29;96638.38;;;17.13
65180;BMP280;51849;47.476;8.084;2022-08-21T03:25:58;96632.94;;;17.11
65180;BMP280;51849;47.476;8.084;2022-08-21T03:28:24;96635.75;;;17.13
65180;BMP280;51849;47.476;8.084;2022-08-21T03:30:51;96632.81;;;17.17
65180;BMP280;51849;47.476;8.084;2022-08-21T03:33:17;96630.34;;;17.19
65180;BMP280;51849;47.476;8.084;2022-08-21T03:35:47;96629.16;;;17.20
65180;BMP280;51849;47.476;8.084;2022-08-21T03:38:16;96632.50;;;17.20
65180;BMP280;51849;47.476;8.084;2022-08-21T03:40:43;96627.94;;;17.21
65180;BMP280;51849;47.476;8.084;2022-08-21T03:43:09;96624.09;;;17.22
65180;BMP280;51849;47.476;8.084;2022-08-21T03:45:35;96627.09;;;17.26
65180;BMP280;51849;47.476;8.084;2022-08-21T03:48:03;96621.03;;;17.31
65180;BMP280;51849;47.476;8.084;2022-08-21T03:50:31;96620.03;;;17.21
65180;BMP280;51849;47.476;8.084;2022-08-21T03:52:58;96628.81;;;17.23
65180;BMP280;51849;47.476;8.084;2022-08-21T03:55:24;96619.59;;;17.30
65180;BMP280;51849;47.476;8.084;2022-08-21T03:57:53;96618.56;;;17.33
65180;BMP280;51849;47.476;8.084;2022-08-21T04:00:20;96623.03;;;17.38
65180;BMP280;51849;47.476;8.084;2022-08-21T04:02:46;96619.34;;;17.41
65180;BMP280;51849;47.476;8.084;2022-08-21T04:05:16;96618.94;;;17.37
65180;BMP280;51849;47.476;8.084;2022-08-21T04:08:02;96621.25;;;17.20
65180;BMP280;51849;47.476;8.084;2022-08-21T04:10:31;96625.53;;;17.10
65180;BMP280;51849;47.476;8.084;2022-08-21T04:12:58;96621.78;;;17.05
65180;BMP280;51849;47.476;8.084;2022-08-21T04:15:25;96623.91;;;17.07
65180;BMP280;51849;47.476;8.084;2022-08-21T04:17:52;96624.69;;;17.15
65180;BMP280;51849;47.476;8.084;2022-08-21T04:20:22;96629.47;;;17.16
65180;BMP280;51849;47.476;8.084;2022-08-21T04:22:51;96623.66;;;17.18
65180;BMP280;51849;47.476;8.084;2022-08-21T04:25:19;96628.13;;;17.23
65180;BMP280;51849;47.476;8.084;2022-08-21T04:27:46;96638.19;;;17.11
65180;BMP280;51849;47.476;8.084;2022-08-21T04:30:13;96639.69;;;17.20
65180;BMP280;51849;47.476;8.084;2022-08-21T04:32:46;96646.78;;;17.25
65180;BMP280;51849;47.476;8.084;2022-08-21T04:35:16;96647.94;;;17.16
65180;BMP280;51849;47.476;8.084;2022-08-21T04:37:45;96658.66;;;17.18
65180;BMP280;51849;47.476;8.084;2022-08-21T04:40:14;96653.25;;;17.24
65180;BMP280;51849;47.476;8.084;2022-08-21T04:45:19;96661.00;;;17.22
65180;BMP280;51849;47.476;8.084;2022-08-21T04:47:53;96647.59;;;17.20
65180;BMP280;51849;47.476;8.084;2022-08-21T04:50:24;96661.00;;;17.22
65180;BMP280;51849;47.476;8.084;2022-08-21T04:52:52;96656.94;;;17.21
65180;BMP280;51849;47.476;8.084;2022-08-21T04:55:22;96657.13;;;17.23
65180;BMP280;51849;47.476;8.084;2022-08-21T04:57:49;96655.81;;;17.29
65180;BMP280;51849;47.476;8.084;2022-08-21T05:00:16;96660.66;;;17.25
65180;BMP280;51849;47.476;8.084;2022-08-21T05:02:46;96659.25;;;17.24
65180;BMP280;51849;47.476;8.084;2022-08-21T05:05:13;96657.50;;;17.27
65180;BMP280;51849;47.476;8.084;2022-08-21T05:07:42;96663.19;;;17.31
65180;BMP280;51849;47.476;8.084;2022-08-21T05:10:09;96654.69;;;17.25
65180;BMP280;51849;47.476;8.084;2022-08-21T05:12:35;96656.81;;;17.26
65180;BMP280;51849;47.476;8.084;2022-08-21T05:15:06;96645.94;;;17.30
65180;BMP280;51849;47.476;8.084;2022-08-21T05:17:34;96652.84;;;17.33
65180;BMP280;51849;47.476;8.084;2022-08-21T05:20:00;96658.31;;;17.35
65180;BMP280;51849;47.476;8.084;2022-08-21T05:22:27;96660.75;;;17.33
65180;BMP280;51849;47.476;8.084;2022-08-21T05:24:56;96660.53;;;17.44
65180;BMP280;51849;47.476;8.084;2022-08-21T05:27:24;96659.81;;;17.43
65180;BMP280;51849;47.476;8.084;2022-08-21T05:29:53;96662.34;;;17.49
65180;BMP280;51849;47.476;8.084;2022-08-21T05:32:18;96657.47;;;17.53
65180;BMP280;51849;47.476;8.084;2022-08-21T05:34:45;96659.66;;;17.62
65180;BMP280;51849;47.476;8.084;2022-08-21T05:37:12;96654.63;;;17.51
65180;BMP280;51849;47.476;8.084;2022-08-21T05:39:38;96670.06;;;17.47
65180;BMP280;51849;47.476;8.084;2022-08-21T05:42:03;96668.34;;;17.49
65180;BMP280;51849;47.476;8.084;2022-08-21T05:44:29;96665.28;;;17.45
65180;BMP280;51849;47.476;8.084;2022-08-21T05:47:03;96671.19;;;17.38
65180;BMP280;51849;47.476;8.084;2022-08-21T05:49:28;96666.00;;;17.46
65180;BMP280;51849;47.476;8.084;2022-08-21T05:51:54;96675.34;;;17.47
65180;BMP280;51849;47.476;8.084;2022-08-21T05:54:21;96665.56;;;17.55
65180;BMP280;51849;47.476;8.084;2022-08-21T05:56:47;96667.84;;;17.71
65180;BMP280;51849;47.476;8.084;2022-08-21T05:59:12;96669.25;;;17.72
65180;BMP280;51849;47.476;8.084;2022-08-21T06:01:39;96677.50;;;17.69
65180;BMP280;51849;47.476;8.084;2022-08-21T06:04:08;96672.91;;;17.49
65180;BMP280;51849;47.476;8.084;2022-08-21T06:06:36;96673.50;;;17.55
65180;BMP280;51849;47.476;8.084;2022-08-21T06:09:03;96673.66;;;17.57
65180;BMP280;51849;47.476;8.084;2022-08-21T06:11:29;96675.25;;;17.39
65180;BMP280;51849;47.476;8.084;2022-08-21T06:13:55;96681.63;;;17.44
65180;BMP280;51849;47.476;8.084;2022-08-21T06:16:20;96666.28;;;17.55
65180;BMP280;51849;47.476;8.084;2022-08-21T06:18:47;96662.50;;;17.64
65180;BMP280;51849;47.476;8.084;2022-08-21T06:21:16;96665.03;;;17.69
65180;BMP280;51849;47.476;8.084;2022-08-21T06:23:42;96662.28;;;17.75
65180;BMP280;51849;47.476;8.084;2022-08-21T06:26:10;96666.91;;;17.82
65180;BMP280;51849;47.476;8.084;2022-08-21T06:28:36;96661.41;;;17.80
65180;BMP280;51849;47.476;8.084;2022-08-21T06:31:12;96659.25;;;17.91
65180;BMP280;51849;47.476;8.084;2022-08-21T06:33:38;96656.72;;;17.86
65180;BMP280;51849;47.476;8.084;2022-08-21T06:36:04;96667.63;;;18.03
65180;BMP280;51849;47.476;8.084;2022-08-21T06:38:30;96665.56;;;18.09
65180;BMP280;51849;47.476;8.084;2022-08-21T06:41:01;96673.78;;;17.85
65180;BMP280;51849;47.476;8.084;2022-08-21T06:43:27;96671.56;;;17.89
65180;BMP280;51849;47.476;8.084;2022-08-21T06:45:52;96668.03;;;17.94
65180;BMP280;51849;47.476;8.084;2022-08-21T06:48:18;96665.28;;;17.99
65180;BMP280;51849;47.476;8.084;2022-08-21T06:50:44;96660.09;;;18.07
65180;BMP280;51849;47.476;8.084;2022-08-21T06:53:15;96665.75;;;18.11
65180;BMP280;51849;47.476;8.084;2022-08-21T06:55:42;96671.63;;;18.17
65180;BMP280;51849;47.476;8.084;2022-08-21T06:58:11;96663.50;;;18.15
65180;BMP280;51849;47.476;8.084;2022-08-21T07:00:42;96663.25;;;18.26
65180;BMP280;51849;47.476;8.084;2022-08-21T07:05:49;96664.34;;;18.30
65180;BMP280;51849;47.476;8.084;2022-08-21T07:08:15;96656.06;;;18.34
65180;BMP280;51849;47.476;8.084;2022-08-21T07:10:42;96675.16;;;18.40
65180;BMP280;51849;47.476;8.084;2022-08-21T07:13:08;96666.75;;;18.49
65180;BMP280;51849;47.476;8.084;2022-08-21T07:15:36;96668.78;;;18.35
65180;BMP280;51849;47.476;8.084;2022-08-21T07:18:05;96663.50;;;18.35
65180;BMP280;51849;47.476;8.084;2022-08-21T07:20:35;96667.22;;;18.40
65180;BMP280;51849;47.476;8.084;2022-08-21T07:23:07;96665.25;;;18.40
65180;BMP280;51849;47.476;8.084;2022-08-21T07:25:37;96669.78;;;18.53
65180;BMP280;51849;47.476;8.084;2022-08-21T07:28:06;96660.81;;;18.64
65180;BMP280;51849;47.476;8.084;2022-08-21T07:30:35;96659.81;;;18.67
65180;BMP280;51849;47.476;8.084;2022-08-21T07:33:04;96661.63;;;18.79
65180;BMP280;51849;47.476;8.084;2022-08-21T07:35:32;96667.31;;;18.91
65180;BMP280;51849;47.476;8.084;2022-08-21T07:38:01;96672.28;;;18.94
65180;BMP280;51849;47.476;8.084;2022-08-21T07:40:39;96676.53;;;19.05
65180;BMP280;51849;47.476;8.084;2022-08-21T07:43:05;96678.66;;;18.99
65180;BMP280;51849;47.476;8.084;2022-08-21T07:45:38;96672.66;;;18.98
65180;BMP280;51849;47.476;8.084;2022-08-21T07:48:27;96673.88;;;18.97
65180;BMP280;51849;47.476;8.084;2022-08-21T07:51:06;96672.66;;;18.98
65180;BMP280;51849;47.476;8.084;2022-08-21T07:53:35;96675.59;;;18.87
65180;BMP280;51849;47.476;8.084;2022-08-21T07:56:03;96676.41;;;18.75
65180;BMP280;51849;47.476;8.084;2022-08-21T07:58:31;96679.56;;;18.73
65180;BMP280;51849;47.476;8.084;2022-08-21T08:00:59;96681.75;;;18.82
65180;BMP280;51849;47.476;8.084;2022-08-21T08:03:31;96684.00;;;18.78
65180;BMP280;51849;47.476;8.084;2022-08-21T08:05:59;96684.97;;;18.96
65180;BMP280;51849;47.476;8.084;2022-08-21T08:08:25;96683.78;;;19.04
65180;BMP280;51849;47.476;8.084;2022-08-21T08:11:11;96684.34;;;19.18
65180;BMP280;51849;47.476;8.084;2022-08-21T08:13:46;96683.31;;;19.13
65180;BMP280;51849;47.476;8.084;2022-08-21T08:16:13;96687.22;;;19.27
65180;BMP280;51849;47.476;8.084;2022-08-21T08:18:39;96686.78;;;19.51
65180;BMP280;51849;47.476;8.084;2022-08-21T08:21:05;96687.34;;;19.72
65180;BMP280;51849;47.476;8.084;2022-08-21T08:23:31;96683.13;;;19.84
65180;BMP280;51849;47.476;8.084;2022-08-21T08:25:58;96679.59;;;19.74
65180;BMP280;51849;47.476;8.084;2022-08-21T08:28:24;96667.97;;;19.92
65180;BMP280;51849;47.476;8.084;2022-08-21T08:30:52;96663.38;;;20.00
65180;BMP280;51849;47.476;8.084;2022-08-21T08:33:21;96662.66;;;20.07
65180;BMP280;51849;47.476;8.084;2022-08-21T08:35:49;96657.50;;;20.39
65180;BMP280;51849;47.476;8.084;2022-08-21T08:38:17;96650.75;;;20.53
65180;BMP280;51849;47.476;8.084;2022-08-21T08:40:50;96655.50;;;20.70
65180;BMP280;51849;47.476;8.084;2022-08-21T08:43:18;96648.22;;;20.70
65180;BMP280;51849;47.476;8.084;2022-08-21T08:45:50;96649.00;;;20.48
65180;BMP280;51849;47.476;8.084;2022-08-21T08:48:57;96642.81;;;20.53
65180;BMP280;51849;47.476;8.084;2022-08-21T08:51:59;96643.13;;;20.73
65180;BMP280;51849;47.476;8.084;2022-08-21T08:54:37;96641.88;;;20.81
65180;BMP280;51849;47.476;8.084;2022-08-21T08:57:17;96644.63;;;20.91
65180;BMP280;51849;47.476;8.084;2022-08-21T08:59:46;96645.91;;;20.90
65180;BMP280;51849;47.476;8.084;2022-08-21T09:02:17;96646.16;;;21.09
65180;BMP280;51849;47.476;8.084;2022-08-21T09:04:54;96642.28;;;21.10
65180;BMP280;51849;47.476;8.084;2022-08-21T09:10:18;96642.59;;;21.14
65180;BMP280;51849;47.476;8.084;2022-08-21T09:12:56;96633.09;;;21.03
65180;BMP280;51849;47.476;8.084;2022-08-21T09:15:52;96634.47;;;21.12
65180;BMP280;51849;47.476;8.084;2022-08-21T09:24:47;96629.13;;;21.44
65180;BMP280;51849;47.476;8.084;2022-08-21T09:27:25;96627.53;;;21.90
65180;BMP280;51849;47.476;8.084;2022-08-21T09:29:53;96617.72;;;22.17
65180;BMP280;51849;47.476;8.084;2022-08-21T09:32:35;96616.16;;;22.48
65180;BMP280;51849;47.476;8.084;2022-08-21T09:37:44;96623.81;;;23.04
65180;BMP280;51849;47.476;8.084;2022-08-21T09:43:02;96612.75;;;23.53
65180;BMP280;51849;47.476;8.084;2022-08-21T09:45:29;96617.44;;;23.72
65180;BMP280;51849;47.476;8.084;2022-08-21T09:47:56;96617.44;;;23.62
65180;BMP280;51849;47.476;8.084;2022-08-21T09:50:25;96614.91;;;23.55
65180;BMP280;51849;47.476;8.084;2022-08-21T09:53:00;96608.28;;;23.56
65180;BMP280;51849;47.476;8.084;2022-08-21T09:55:38;96607.97;;;23.42
65180;BMP280;51849;47.476;8.084;2022-08-21T09:58:34;96613.81;;;23.77
65180;BMP280;51849;47.476;8.084;2022-08-21T10:01:03;96605.16;;;24.05
65180;BMP280;51849;47.476;8.084;2022-08-21T10:03:29;96602.34;;;24.22
65180;BMP280;51849;47.476;8.084;2022-08-21T10:06:06;96598.94;;;24.31
65180;BMP280;51849;47.476;8.084;2022-08-21T10:08:36;96601.06;;;24.23
65180;BMP280;51849;47.476;8.084;2022-08-21T10:11:14;96604.00;;;24.18
65180;BMP280;51849;47.476;8.084;2022-08-21T10:21:34;96587.31;;;24.46
65180;BMP280;51849;47.476;8.084;2022-08-21T10:24:19;96574.81;;;24.48
65180;BMP280;51849;47.476;8.084;2022-08-21T10:29:51;96568.31;;;24.61
65180;BMP280;51849;47.476;8.084;2022-08-21T10:35:30;96553.94;;;25.36
65180;BMP280;51849;47.476;8.084;2022-08-21T10:49:45;96561.44;;;25.49
65180;BMP280;51849;47.476;8.084;2022-08-21T10:55:16;96555.00;;;24.91
65180;BMP280;51849;47.476;8.084;2022-08-21T10:57:57;96548.31;;;25.11
65180;BMP280;51849;47.476;8.084;2022-08-21T11:03:35;96542.00;;;24.76
65180;BMP280;51849;47.476;8.084;2022-08-21T11:06:42;96537.00;;;25.01
65180;BMP280;51849;47.476;8.084;2022-08-21T11:09:18;96543.88;;;25.46
65180;BMP280;51849;47.476;8.084;2022-08-21T11:17:14;96527.44;;;25.61
65180;BMP280;51849;47.476;8.084;2022-08-21T11:19:48;96522.34;;;25.86
65180;BMP280;51849;47.476;8.084;2022-08-21T11:22:23;96523.47;;;25.83
65180;BMP280;51849;47.476;8.084;2022-08-21T11:25:02;96517.44;;;25.94
65180;BMP280;51849;47.476;8.084;2022-08-21T11:30:16;96519.25;;;25.69
65180;BMP280;51849;47.476;8.084;2022-08-21T11:33:00;96516.19;;;25.95
65180;BMP280;51849;47.476;8.084;2022-08-21T11:45:54;96509.81;;;24.44
65180;BMP280;51849;47.476;8.084;2022-08-21T11:49:00;96513.91;;;24.35
65180;BMP280;51849;47.476;8.084;2022-08-21T11:51:41;96506.94;;;24.61
65180;BMP280;51849;47.476;8.084;2022-08-21T12:01:59;96506.84;;;25.52
65180;BMP280;51849;47.476;8.084;2022-08-21T12:04:29;96501.53;;;25.31
65180;BMP280;51849;47.476;8.084;2022-08-21T12:07:33;96495.28;;;25.17
65180;BMP280;51849;47.476;8.084;2022-08-21T12:10:07;96505.19;;;25.05
65180;BMP280;51849;47.476;8.084;2022-08-21T12:12:39;96495.22;;;25.06
65180;BMP280;51849;47.476;8.084;2022-08-21T12:22:54;96493.94;;;25.81
65180;BMP280;51849;47.476;8.084;2022-08-21T12:25:21;96478.19;;;25.97
65180;BMP280;51849;47.476;8.084;2022-08-21T12:28:02;96475.22;;;26.37
65180;BMP280;51849;47.476;8.084;2022-08-21T12:30:37;96471.97;;;26.73
65180;BMP280;51849;47.476;8.084;2022-08-21T12:33:26;96467.38;;;26.87
65180;BMP280;51849;47.476;8.084;2022-08-21T12:36:16;96461.44;;;27.00
65180;BMP280;51849;47.476;8.084;2022-08-21T12:38:51;96460.25;;;27.14
65180;BMP280;51849;47.476;8.084;2022-08-21T12:41:32;96464.44;;;27.06
65180;BMP280;51849;47.476;8.084;2022-08-21T12:44:10;96460.59;;;27.34
65180;BMP280;51849;47.476;8.084;2022-08-21T12:46:55;96461.09;;;27.30
65180;BMP280;51849;47.476;8.084;2022-08-21T12:49:49;96468.19;;;27.01
65180;BMP280;51849;47.476;8.084;2022-08-21T12:52:34;96463.69;;;27.28
65180;BMP280;51849;47.476;8.084;2022-08-21T12:55:04;96461.72;;;27.42
65180;BMP280;51849;47.476;8.084;2022-08-21T12:57:30;96462.19;;;27.50
65180;BMP280;51849;47.476;8.084;2022-08-21T13:00:04;96461.81;;;27.31
65180;BMP280;51849;47.476;8.084;2022-08-21T13:02:36;96458.78;;;27.25
65180;BMP280;51849;47.476;8.084;2022-08-21T13:05:12;96455.66;;;27.28
65180;BMP280;51849;47.476;8.084;2022-08-21T13:07:48;96457.66;;;27.16
65180;BMP280;51849;47.476;8.084;2022-08-21T13:10:27;96463.03;;;27.05
65180;BMP280;51849;47.476;8.084;2022-08-21T13:12:56;96455.59;;;27.03
65180;BMP280;51849;47.476;8.084;2022-08-21T13:15:38;96455.53;;;27.26
65180;BMP280;51849;47.476;8.084;2022-08-21T13:18:19;96456.28;;;27.40
65180;BMP280;51849;47.476;8.084;2022-08-21T13:20:45;96455.00;;;27.41
65180;BMP280;51849;47.476;8.084;2022-08-21T13:23:29;96452.41;;;27.18
65180;BMP280;51849;47.476;8.084;2022-08-21T13:25:58;96449.69;;;27.30
65180;BMP280;51849;47.476;8.084;2022-08-21T13:28:32;96446.03;;;27.48
65180;BMP280;51849;47.476;8.084;2022-08-21T13:30:59;96447.38;;;27.74
65180;BMP280;51849;47.476;8.084;2022-08-21T13:33:32;96445.97;;;27.73
65180;BMP280;51849;47.476;8.084;2022-08-21T13:38:34;96439.88;;;27.98
65180;BMP280;51849;47.476;8.084;2022-08-21T13:43:46;96435.78;;;27.83
65180;BMP280;51849;47.476;8.084;2022-08-21T13:46:13;96439.31;;;27.99
65180;BMP280;51849;47.476;8.084;2022-08-21T13:48:42;96435.28;;;28.00
65180;BMP280;51849;47.476;8.084;2022-08-21T13:51:09;96433.44;;;28.03
65180;BMP280;51849;47.476;8.084;2022-08-21T13:53:50;96438.91;;;28.18
65180;BMP280;51849;47.476;8.084;2022-08-21T13:56:33;96437.31;;;28.27
65180;BMP280;51849;47.476;8.084;2022-08-21T13:59:06;96432.75;;;28.29
65180;BMP280;51849;47.476;8.084;2022-08-21T14:02:07;96428.16;;;28.18
65180;BMP280;51849;47.476;8.084;2022-08-21T14:07:20;96428.88;;;28.32
65180;BMP280;51849;47.476;8.084;2022-08-21T14:09:49;96424.09;;;27.90
65180;BMP280;51849;47.476;8.084;2022-08-21T14:12:47;96416.97;;;27.70
65180;BMP280;51849;47.476;8.084;2022-08-21T14:15:25;96406.50;;;27.87
65180;BMP280;51849;47.476;8.084;2022-08-21T14:18:16;96412.63;;;27.76
65180;BMP280;51849;47.476;8.084;2022-08-21T14:20:43;96418.97;;;27.83
65180;BMP280;51849;47.476;8.084;2022-08-21T14:23:10;96413.34;;;27.90
65180;BMP280;51849;47.476;8.084;2022-08-21T14:25:43;96408.75;;;27.93
65180;BMP280;51849;47.476;8.084;2022-08-21T14:30:51;96410.47;;;28.00
65180;BMP280;51849;47.476;8.084;2022-08-21T14:33:30;96402.59;;;28.04
65180;BMP280;51849;47.476;8.084;2022-08-21T14:36:16;96408.69;;;28.18
65180;BMP280;51849;47.476;8.084;2022-08-21T14:38:42;96398.34;;;28.12
65180;BMP280;51849;47.476;8.084;2022-08-21T14:41:19;96405.72;;;28.12
65180;BMP280;51849;47.476;8.084;2022-08-21T14:43:47;96396.38;;;27.99
65180;BMP280;51849;47.476;8.084;2022-08-21T14:46:19;96399.94;;;28.17
65180;BMP280;51849;47.476;8.084;2022-08-21T14:48:46;96405.69;;;27.98
65180;BMP280;51849;47.476;8.084;2022-08-21T14:51:13;96394.34;;;27.86
65180;BMP280;51849;47.476;8.084;2022-08-21T14:53:40;96394.97;;;27.98
65180;BMP280;51849;47.476;8.084;2022-08-21T14:56:10;96389.06;;;27.88
65180;BMP280;51849;47.476;8.084;2022-08-21T14:58:45;96383.16;;;27.90
65180;BMP280;51849;47.476;8.084;2022-08-21T15:01:13;96376.38;;;27.89
65180;BMP280;51849;47.476;8.084;2022-08-21T15:03:39;96378.97;;;27.87
65180;BMP280;51849;47.476;8.084;2022-08-21T15:06:06;96382.97;;;27.99
65180;BMP280;51849;47.476;8.084;2022-08-21T15:08:33;96376.09;;;28.10
65180;BMP280;51849;47.476;8.084;2022-08-21T15:11:00;96380.59;;;28.05
65180;BMP280;51849;47.476;8.084;2022-08-21T15:13:27;96375.69;;;28.15
65180;BMP280;51849;47.476;8.084;2022-08-21T15:15:56;96379.75;;;27.89
65180;BMP280;51849;47.476;8.084;2022-08-21T15:18:24;96381.66;;;28.00
65180;BMP280;51849;47.476;8.084;2022-08-21T15:20:51;96386.03;;;27.94
65180;BMP280;51849;47.476;8.084;2022-08-21T15:23:25;96374.41;;;27.76
65180;BMP280;51849;47.476;8.084;2022-08-21T15:25:55;96370.41;;;27.77
65180;BMP280;51849;47.476;8.084;2022-08-21T15:28:26;96368.31;;;27.75
65180;BMP280;51849;47.476;8.084;2022-08-21T15:30:52;96369.41;;;27.70
65180;BMP280;51849;47.476;8.084;2022-08-21T15:33:18;96363.59;;;27.87
65180;BMP280;51849;47.476;8.084;2022-08-21T15:35:47;96370.44;;;27.90
65180;BMP280;51849;47.476;8.084;2022-08-21T15:38:14;96354.34;;;27.77
65180;BMP280;51849;47.476;8.084;2022-08-21T15:40:41;96358.59;;;27.68
65180;BMP280;51849;47.476;8.084;2022-08-21T15:43:18;96355.81;;;27.66
65180;BMP280;51849;47.476;8.084;2022-08-21T15:45:46;96359.56;;;27.61
65180;BMP280;51849;47.476;8.084;2022-08-21T15:48:12;96348.56;;;27.69
65180;BMP280;51849;47.476;8.084;2022-08-21T15:50:37;96349.44;;;27.73
65180;BMP280;51849;47.476;8.084;2022-08-21T15:53:03;96351.44;;;27.73
65180;BMP280;51849;47.476;8.084;2022-08-21T15:55:29;96354.22;;;27.61
65180;BMP280;51849;47.476;8.084;2022-08-21T15:57:54;96345.84;;;27.55
65180;BMP280;51849;47.476;8.084;2022-08-21T16:00:31;96344.66;;;27.45
65180;BMP280;51849;47.476;8.084;2022-08-21T16:03:03;96345.47;;;27.22
65180;BMP280;51849;47.476;8.084;2022-08-21T16:05:31;96340.34;;;27.26
65180;BMP280;51849;47.476;8.084;2022-08-21T16:07:57;96338.44;;;27.29
65180;BMP280;51849;47.476;8.084;2022-08-21T16:10:23;96344.69;;;27.20